Time;durP1;ratioP1;P1;durP2;ratioP2;P2;SDS_P1;SDS_P2;PMS_P1;PMS_P2;Temp;Humidity;BMP_temperature;BMP_pressure;BME280_temperature;BME280_humidity;BME280_pressure;Samples;Min_cycle;Max_cycle;Signal;HPM_P1;HPM_P2
2021/03/29 00:00:06;;;;;;;9.50;5.07;;;6.40;99.90;;;;;;5051235;28;20509;-71
2021/03/29 00:02:34;;;;;;;7.93;4.40;;;6.40;99.90;;;;;;5051207;28;20979;-71
2021/03/29 00:05:01;;;;;;;5.87;4.50;;;6.50;99.90;;;;;;5051443;28;20533;-71
2021/03/29 00:07:28;;;;;;;6.90;3.83;;;6.60;99.90;;;;;;5051273;28;20476;-71
2021/03/29 00:09:56;;;;;;;5.13;4.13;;;6.60;99.90;;;;;;5050570;28;20562;-71
2021/03/29 00:12:24;;;;;;;11.60;5.00;;;6.70;99.90;;;;;;5051119;28;20717;-72
2021/03/29 00:14:51;;;;;;;8.30;4.73;;;6.60;99.90;;;;;;5051064;28;20530;-71
2021/03/29 00:17:19;;;;;;;5.47;4.47;;;6.60;99.90;;;;;;5051029;28;20533;-71
2021/03/29 00:19:47;;;;;;;8.63;4.30;;;6.60;99.90;;;;;;5050955;28;20499;-71
2021/03/29 00:22:13;;;;;;;6.50;4.13;;;6.70;99.90;;;;;;5051339;28;20887;-71
2021/03/29 00:24:40;;;;;;;8.47;4.53;;;6.60;99.90;;;;;;5050917;28;20543;-72
2021/03/29 00:27:08;;;;;;;9.07;4.50;;;6.60;99.90;;;;;;5050624;28;21015;-71
2021/03/29 00:29:34;;;;;;;9.27;4.33;;;6.60;99.90;;;;;;5050265;28;20572;-72
2021/03/29 00:32:01;;;;;;;8.50;4.40;;;6.50;99.90;;;;;;5050330;28;20479;-72
2021/03/29 00:34:29;;;;;;;8.07;4.97;;;6.50;99.90;;;;;;5050473;28;20530;-72
2021/03/29 00:36:56;;;;;;;8.67;4.93;;;6.60;99.90;;;;;;5050550;28;20531;-72
2021/03/29 00:39:25;;;;;;;7.73;5.10;;;6.60;99.90;;;;;;5050575;28;21075;-71
2021/03/29 00:41:52;;;;;;;8.70;5.10;;;6.60;99.90;;;;;;5050915;28;20535;-71
2021/03/29 00:44:20;;;;;;;7.73;4.90;;;6.60;99.90;;;;;;5050692;28;20536;-71
2021/03/29 00:46:47;;;;;;;7.00;4.20;;;6.60;99.90;;;;;;5050700;28;20502;-71
2021/03/29 00:49:14;;;;;;;5.53;4.13;;;6.60;99.90;;;;;;5050353;28;21061;-71
2021/03/29 00:51:41;;;;;;;8.60;4.27;;;6.60;99.90;;;;;;5050201;28;20530;-71
2021/03/29 00:54:10;;;;;;;10.33;4.60;;;6.60;99.90;;;;;;5052302;28;20515;-71
2021/03/29 00:56:38;;;;;;;7.80;4.63;;;6.60;99.90;;;;;;5050183;28;20958;-71
2021/03/29 00:59:06;;;;;;;11.57;4.10;;;6.60;99.90;;;;;;5050398;28;20546;-71
2021/03/29 01:01:38;;;;;;;4.77;4.10;;;6.50;99.90;;;;;;5050312;28;20531;-71
2021/03/29 01:04:06;;;;;;;9.03;5.13;;;6.30;99.90;;;;;;5051107;28;20492;-71
2021/03/29 01:06:37;;;;;;;7.43;5.40;;;6.30;99.90;;;;;;5051380;28;20527;-71
2021/03/29 01:09:06;;;;;;;7.53;4.43;;;6.30;99.90;;;;;;5050727;28;20579;-72
2021/03/29 01:11:41;;;;;;;7.43;5.30;;;6.10;99.90;;;;;;5049620;28;20452;-71
2021/03/29 01:14:11;;;;;;;7.40;5.03;;;6.20;99.90;;;;;;5051902;28;20424;-72
2021/03/29 01:16:47;;;;;;;7.20;4.70;;;6.10;99.90;;;;;;5049545;28;20960;-72
2021/03/29 01:19:20;;;;;;;7.30;5.00;;;6.10;99.90;;;;;;5049763;28;20859;-72
2021/03/29 01:21:57;;;;;;;11.50;5.63;;;6.00;99.90;;;;;;5049713;28;20462;-71
2021/03/29 01:24:29;;;;;;;6.10;3.93;;;6.00;99.90;;;;;;5049618;28;20532;-72
2021/03/29 01:26:57;;;;;;;7.33;5.10;;;5.90;99.90;;;;;;5049515;28;20476;-71
2021/03/29 01:29:30;;;;;;;9.87;4.30;;;5.80;99.90;;;;;;5049311;28;20496;-71
2021/03/29 01:31:59;;;;;;;6.97;4.43;;;5.80;99.90;;;;;;5049403;28;20487;-72
2021/03/29 01:34:26;;;;;;;9.80;4.80;;;5.80;99.90;;;;;;5049343;28;20527;-72
2021/03/29 01:36:53;;;;;;;8.30;5.30;;;5.90;99.90;;;;;;5049309;28;21180;-72
2021/03/29 01:39:22;;;;;;;8.70;4.90;;;5.80;99.90;;;;;;5049444;28;20873;-71
2021/03/29 01:41:49;;;;;;;10.87;5.00;;;5.70;99.90;;;;;;5049043;28;20607;-72
2021/03/29 01:44:17;;;;;;;9.33;5.60;;;5.70;99.90;;;;;;5051722;28;20538;-71
2021/03/29 01:46:45;;;;;;;5.03;4.53;;;5.60;99.90;;;;;;5052929;28;20451;-72
2021/03/29 01:49:12;;;;;;;5.67;4.67;;;5.60;99.90;;;;;;5053257;28;20535;-71
2021/03/29 01:51:39;;;;;;;5.47;4.63;;;5.50;99.90;;;;;;5052787;28;20531;-72
2021/03/29 01:54:06;;;;;;;8.30;5.03;;;5.40;99.90;;;;;;5053256;28;20475;-71
2021/03/29 01:56:33;;;;;;;12.30;6.03;;;5.50;99.90;;;;;;5052671;28;20486;-71
2021/03/29 01:58:59;;;;;;;9.70;4.60;;;5.50;99.90;;;;;;5052741;28;20545;-73
2021/03/29 02:01:26;;;;;;;10.77;4.40;;;5.40;99.90;;;;;;5052484;28;20957;-71
2021/03/29 02:03:53;;;;;;;8.50;6.00;;;5.50;99.90;;;;;;5052683;28;20448;-71
2021/03/29 02:06:20;;;;;;;7.60;4.83;;;5.50;99.90;;;;;;5052567;28;20472;-71
2021/03/29 02:08:48;;;;;;;8.00;4.70;;;5.40;99.90;;;;;;5052188;28;20586;-72
2021/03/29 02:11:15;;;;;;;9.03;4.50;;;5.40;99.90;;;;;;5052234;28;20531;-72
2021/03/29 02:13:44;;;;;;;8.20;5.07;;;5.40;99.90;;;;;;5053178;28;20619;-72
2021/03/29 02:16:13;;;;;;;8.23;4.80;;;5.40;99.90;;;;;;5052585;28;20530;-71
2021/03/29 02:18:43;;;;;;;9.17;4.37;;;5.30;99.90;;;;;;5052723;28;20523;-72
2021/03/29 02:21:12;;;;;;;7.90;5.50;;;5.40;99.90;;;;;;5052324;28;20885;-72
2021/03/29 02:23:42;;;;;;;6.80;4.57;;;5.30;99.90;;;;;;5052387;28;20577;-72
2021/03/29 02:26:09;;;;;;;6.30;4.10;;;5.30;99.90;;;;;;5052053;28;20867;-71
2021/03/29 02:28:36;;;;;;;7.60;5.13;;;5.40;99.90;;;;;;5052435;28;20575;-71
2021/03/29 02:31:05;;;;;;;8.33;4.80;;;5.30;99.90;;;;;;5052287;28;20527;-72
2021/03/29 02:33:33;;;;;;;9.30;4.50;;;5.30;99.90;;;;;;5052244;28;20538;-72
2021/03/29 02:36:01;;;;;;;6.83;6.00;;;5.20;99.90;;;;;;5052491;28;20586;-72
2021/03/29 02:38:27;;;;;;;6.83;4.70;;;5.20;99.90;;;;;;5052442;28;20535;-71
2021/03/29 02:40:55;;;;;;;8.83;4.97;;;5.10;99.90;;;;;;5052073;28;20880;-72
2021/03/29 02:43:23;;;;;;;6.13;4.70;;;5.10;99.90;;;;;;5052343;28;20519;-72
2021/03/29 02:45:52;;;;;;;7.37;4.23;;;5.00;99.90;;;;;;5052550;28;20448;-72
2021/03/29 02:48:21;;;;;;;6.90;4.60;;;5.00;99.90;;;;;;5051976;28;20570;-71
2021/03/29 02:50:50;;;;;;;7.63;4.57;;;4.90;99.90;;;;;;5051806;28;20470;-72
2021/03/29 02:53:20;;;;;;;10.30;5.07;;;4.90;99.90;;;;;;5051775;28;20479;-72
2021/03/29 02:55:48;;;;;;;7.63;5.30;;;5.00;99.90;;;;;;5051450;28;20490;-72
2021/03/29 02:58:17;;;;;;;10.37;5.17;;;5.00;99.90;;;;;;5051852;28;20554;-71
2021/03/29 03:00:43;;;;;;;5.77;4.70;;;4.90;99.90;;;;;;5051286;28;20866;-72
2021/03/29 03:03:11;;;;;;;7.70;5.77;;;4.90;99.90;;;;;;5051744;28;20877;-71
2021/03/29 03:05:39;;;;;;;6.50;4.80;;;5.00;99.90;;;;;;5051641;28;20535;-71
2021/03/29 03:08:07;;;;;;;5.07;4.23;;;5.00;99.90;;;;;;5051307;28;20563;-72
2021/03/29 03:10:36;;;;;;;7.53;4.50;;;4.80;99.90;;;;;;5050847;28;20547;-71
2021/03/29 03:13:04;;;;;;;9.20;5.90;;;4.70;99.90;;;;;;5051493;28;20473;-72
2021/03/29 03:15:31;;;;;;;10.30;5.10;;;4.70;99.90;;;;;;5051271;28;20535;-71
2021/03/29 03:18:00;;;;;;;8.37;5.13;;;4.70;99.90;;;;;;5050936;28;21051;-71
2021/03/29 03:20:28;;;;;;;7.13;4.70;;;4.80;99.90;;;;;;5050734;28;20559;-73
2021/03/29 03:22:56;;;;;;;5.80;4.60;;;4.80;99.90;;;;;;5051603;28;20910;-71
2021/03/29 03:25:25;;;;;;;5.50;4.20;;;4.80;99.90;;;;;;5054067;28;20527;-71
2021/03/29 03:27:52;;;;;;;4.70;4.20;;;4.80;99.90;;;;;;5051137;28;20482;-71
2021/03/29 03:30:21;;;;;;;6.90;4.47;;;4.80;99.90;;;;;;5050586;28;20988;-72
2021/03/29 03:32:47;;;;;;;8.20;4.40;;;4.80;99.90;;;;;;5050891;28;20605;-71
2021/03/29 03:35:17;;;;;;;6.23;4.47;;;4.80;99.90;;;;;;5051002;28;20594;-71
2021/03/29 03:37:48;;;;;;;7.67;4.90;;;4.80;99.90;;;;;;5051289;28;20527;-72
2021/03/29 03:40:17;;;;;;;11.50;4.70;;;4.80;99.90;;;;;;5051134;28;20890;-72
2021/03/29 03:42:44;;;;;;;7.63;5.03;;;4.70;99.90;;;;;;5050845;28;20515;-72
2021/03/29 03:45:13;;;;;;;10.40;4.57;;;4.70;99.90;;;;;;5050607;28;20531;-71
2021/03/29 03:47:41;;;;;;;9.30;4.70;;;4.60;99.90;;;;;;5050335;28;21031;-71
2021/03/29 03:50:11;;;;;;;10.60;5.00;;;4.50;99.90;;;;;;5050154;28;20543;-72
2021/03/29 03:52:39;;;;;;;9.40;4.20;;;4.50;99.90;;;;;;5050389;28;20490;-71
2021/03/29 03:55:07;;;;;;;7.40;5.07;;;4.50;99.90;;;;;;5050479;28;20527;-71
2021/03/29 03:57:36;;;;;;;10.20;4.33;;;4.60;99.90;;;;;;5050558;28;20475;-72
2021/03/29 04:00:06;;;;;;;5.87;3.87;;;4.50;99.90;;;;;;5049928;28;20559;-72
2021/03/29 04:02:35;;;;;;;7.70;5.20;;;4.40;99.90;;;;;;5050190;28;20527;-71
2021/03/29 04:05:02;;;;;;;6.43;4.87;;;4.40;99.90;;;;;;5050337;28;20448;-71
2021/03/29 04:07:29;;;;;;;5.50;3.83;;;4.40;99.90;;;;;;5049368;28;20821;-72
2021/03/29 04:09:58;;;;;;;6.97;4.73;;;4.30;99.90;;;;;;5086064;23;20515;-72
2021/03/29 04:12:25;;;;;;;7.80;4.90;;;4.40;99.90;;;;;;5090524;28;20450;-71
2021/03/29 04:14:51;;;;;;;7.43;3.97;;;4.40;99.90;;;;;;5090150;28;20986;-71
2021/03/29 04:17:17;;;;;;;6.60;4.20;;;4.50;99.90;;;;;;5097908;28;20456;-71
2021/03/29 04:19:45;;;;;;;8.97;4.90;;;4.70;99.90;;;;;;5110397;28;20525;-71
2021/03/29 04:22:11;;;;;;;9.47;4.40;;;4.80;99.90;;;;;;5110526;28;20476;-71
2021/03/29 04:24:37;;;;;;;9.90;4.87;;;4.90;99.90;;;;;;5110528;28;21068;-71
2021/03/29 04:27:05;;;;;;;6.87;4.97;;;4.90;99.90;;;;;;5110198;28;20469;-70
2021/03/29 04:29:32;;;;;;;11.73;4.63;;;5.00;99.90;;;;;;5110026;28;20434;-71
2021/03/29 04:31:58;;;;;;;7.80;4.07;;;5.00;99.90;;;;;;5110645;28;20443;-70
2021/03/29 04:34:24;;;;;;;7.80;4.87;;;5.20;99.90;;;;;;5110567;28;20888;-69
2021/03/29 04:36:52;;;;;;;7.70;4.40;;;5.20;99.90;;;;;;5102650;28;20808;-74
2021/03/29 04:39:18;;;;;;;7.73;4.37;;;5.30;99.90;;;;;;5090299;28;20817;-74
2021/03/29 04:41:44;;;;;;;5.27;4.33;;;5.30;99.90;;;;;;5089077;28;20477;-74
2021/03/29 04:44:11;;;;;;;8.73;4.97;;;5.40;99.90;;;;;;5090998;28;20470;-78
2021/03/29 04:46:37;;;;;;;6.63;4.13;;;5.50;99.90;;;;;;5090384;28;20489;-75
2021/03/29 04:49:04;;;;;;;6.47;4.37;;;5.50;99.90;;;;;;5090013;28;20486;-72
2021/03/29 04:51:30;;;;;;;8.30;4.67;;;5.50;99.90;;;;;;5089650;28;20582;-75
2021/03/29 04:53:58;;;;;;;8.93;6.30;;;5.50;99.90;;;;;;5090126;28;20527;-75
2021/03/29 04:56:24;;;;;;;6.60;4.73;;;5.50;99.90;;;;;;5110754;28;20529;-76
2021/03/29 04:58:50;;;;;;;9.00;4.90;;;5.60;99.90;;;;;;5104031;28;20444;-74
2021/03/29 05:01:17;;;;;;;6.70;4.80;;;5.60;99.90;;;;;;5102118;28;20445;-73
2021/03/29 05:03:43;;;;;;;7.97;3.90;;;5.60;99.90;;;;;;5093698;28;20532;-73
2021/03/29 05:06:09;;;;;;;12.63;4.63;;;5.70;99.90;;;;;;5105092;28;21047;-74
2021/03/29 05:08:36;;;;;;;6.70;3.83;;;5.70;99.90;;;;;;5110939;28;20560;-74
2021/03/29 05:11:03;;;;;;;8.13;4.60;;;5.70;99.90;;;;;;5091103;28;20520;-74
2021/03/29 05:13:30;;;;;;;8.33;4.80;;;5.70;99.90;;;;;;5099878;28;20437;-74
2021/03/29 05:15:56;;;;;;;8.90;4.87;;;5.80;99.90;;;;;;5098051;28;20868;-75
2021/03/29 05:18:22;;;;;;;9.50;6.00;;;5.70;99.90;;;;;;5099976;28;20537;-75
2021/03/29 05:20:49;;;;;;;9.93;4.93;;;5.80;99.90;;;;;;5102996;28;20523;-75
2021/03/29 05:23:15;;;;;;;6.87;5.87;;;5.80;99.90;;;;;;5101330;28;20442;-74
2021/03/29 05:25:41;;;;;;;10.03;5.73;;;5.90;99.90;;;;;;5093408;28;20529;-77
2021/03/29 05:28:08;;;;;;;11.10;6.13;;;5.90;99.90;;;;;;5093569;28;20521;-76
2021/03/29 05:30:35;;;;;;;7.70;5.10;;;6.00;99.90;;;;;;5093206;28;20528;-76
2021/03/29 05:33:02;;;;;;;6.43;4.90;;;6.10;99.90;;;;;;5093307;28;20545;-75
2021/03/29 05:35:29;;;;;;;9.40;5.63;;;6.20;99.90;;;;;;5093325;28;20531;-75
2021/03/29 05:37:55;;;;;;;10.90;6.87;;;6.20;99.90;;;;;;5092948;28;20483;-75
2021/03/29 05:40:22;;;;;;;8.97;5.70;;;6.30;99.90;;;;;;5092856;28;20529;-75
2021/03/29 05:42:50;;;;;;;11.70;6.23;;;6.30;99.90;;;;;;5093253;28;20887;-75
2021/03/29 05:45:18;;;;;;;11.23;6.53;;;6.30;99.90;;;;;;5092933;28;20446;-75
2021/03/29 05:47:45;;;;;;;17.63;6.57;;;6.40;99.90;;;;;;5092917;28;20885;-76
2021/03/29 05:50:15;;;;;;;11.53;6.37;;;6.40;99.90;;;;;;5092567;28;20451;-76
2021/03/29 05:52:42;;;;;;;13.83;6.77;;;6.40;99.90;;;;;;5092693;28;20528;-76
2021/03/29 05:55:14;;;;;;;8.93;5.90;;;6.50;99.90;;;;;;5092807;28;20533;-76
2021/03/29 05:57:42;;;;;;;8.43;5.37;;;6.60;99.90;;;;;;5095260;28;20506;-76
2021/03/29 06:00:39;;;;;;;15.50;6.40;;;6.60;99.90;;;;;;5110137;28;20448;-76
2021/03/29 06:03:21;;;;;;;13.83;5.53;;;6.50;99.90;;;;;;5112764;28;20473;-76
2021/03/29 06:05:49;;;;;;;9.70;6.30;;;6.60;99.90;;;;;;5110474;28;20544;-76
2021/03/29 06:08:15;;;;;;;11.00;5.93;;;6.50;99.90;;;;;;5112625;28;20591;-76
2021/03/29 06:10:42;;;;;;;9.87;6.80;;;6.60;99.90;;;;;;5113014;28;20531;-76
2021/03/29 06:13:17;;;;;;;13.60;5.40;;;6.60;99.90;;;;;;5112972;28;20445;-76
2021/03/29 06:15:45;;;;;;;9.10;5.80;;;6.60;99.90;;;;;;5112777;28;21241;-76
2021/03/29 06:18:13;;;;;;;18.00;6.00;;;6.60;99.90;;;;;;5112613;28;20990;-76
2021/03/29 06:21:09;;;;;;;11.07;7.17;;;6.70;99.90;;;;;;5112715;28;20807;-76
2021/03/29 06:23:37;;;;;;;11.37;5.00;;;6.80;99.90;;;;;;5066159;28;20457;-76
2021/03/29 06:26:21;;;;;;;9.23;4.97;;;7.00;99.90;;;;;;5112965;28;20437;-76
2021/03/29 06:28:48;;;;;;;9.57;5.43;;;7.20;99.90;;;;;;5112320;28;21090;-76
2021/03/29 06:31:19;;;;;;;8.63;5.10;;;7.40;99.90;;;;;;5112128;28;20528;-77
2021/03/29 06:33:47;;;;;;;11.07;5.03;;;7.60;99.90;;;;;;5112563;28;20445;-76
2021/03/29 06:36:32;;;;;;;10.93;5.37;;;7.70;99.90;;;;;;5112676;28;20452;-76
2021/03/29 06:39:12;;;;;;;8.60;5.10;;;7.80;99.90;;;;;;5112949;28;20448;-76
2021/03/29 06:41:39;;;;;;;7.37;4.90;;;7.90;99.90;;;;;;5112447;28;20852;-76
2021/03/29 06:44:06;;;;;;;9.30;5.60;;;8.10;99.90;;;;;;5112768;28;21098;-76
2021/03/29 06:46:34;;;;;;;8.90;5.10;;;8.30;99.90;;;;;;5112919;28;20833;-76
2021/03/29 06:49:01;;;;;;;8.07;5.60;;;8.50;99.90;;;;;;5112697;28;20480;-76
2021/03/29 06:51:30;;;;;;;10.97;5.30;;;8.70;99.90;;;;;;5112265;28;21021;-76
2021/03/29 06:53:58;;;;;;;8.20;4.97;;;9.00;99.90;;;;;;5112794;28;20441;-75
2021/03/29 06:56:32;;;;;;;9.23;5.40;;;9.10;99.90;;;;;;5112351;28;20528;-76
2021/03/29 06:59:13;;;;;;;8.13;4.97;;;9.20;99.90;;;;;;5112621;28;20457;-76
2021/03/29 07:01:48;;;;;;;7.70;5.87;;;9.30;99.90;;;;;;5112305;28;20488;-77
2021/03/29 07:04:15;;;;;;;9.50;7.50;;;9.40;99.90;;;;;;5112441;28;20924;-75
2021/03/29 07:06:43;;;;;;;9.47;6.50;;;9.50;99.90;;;;;;5112176;28;20430;-76
2021/03/29 07:09:11;;;;;;;7.50;5.80;;;9.70;99.90;;;;;;5111997;28;20484;-76
2021/03/29 07:11:39;;;;;;;11.50;6.20;;;9.80;99.90;;;;;;5111667;28;20482;-76
2021/03/29 07:14:06;;;;;;;8.13;5.10;;;10.00;99.90;;;;;;5111958;28;21015;-76
2021/03/29 07:16:33;;;;;;;6.93;5.03;;;10.20;99.90;;;;;;5111837;28;20989;-76
2021/03/29 07:19:02;;;;;;;5.90;4.00;;;10.30;99.90;;;;;;5111882;28;21042;-76
2021/03/29 07:21:29;;;;;;;6.03;4.50;;;10.60;99.90;;;;;;5111621;28;20512;-76
2021/03/29 07:24:01;;;;;;;6.20;4.20;;;10.80;99.90;;;;;;5111826;28;20928;-76
2021/03/29 07:26:33;;;;;;;8.80;4.37;;;10.90;99.90;;;;;;5111515;28;20540;-76
2021/03/29 07:29:16;;;;;;;9.90;4.87;;;11.10;99.90;;;;;;5112060;28;20488;-76
2021/03/29 07:31:43;;;;;;;6.70;4.37;;;11.20;99.90;;;;;;5111264;28;20532;-76
2021/03/29 07:34:11;;;;;;;9.73;4.30;;;11.30;99.90;;;;;;5111535;28;20548;-76
2021/03/29 07:36:42;;;;;;;8.33;4.50;;;11.30;99.90;;;;;;5111316;28;20925;-76
2021/03/29 07:39:09;;;;;;;8.93;4.77;;;11.40;99.90;;;;;;5111766;28;20482;-77
2021/03/29 07:41:36;;;;;;;8.77;4.50;;;11.40;99.20;;;;;;5110470;28;20523;-76
2021/03/29 07:44:14;;;;;;;5.70;3.90;;;11.40;99.80;;;;;;5111999;28;20536;-76
2021/03/29 07:46:43;;;;;;;8.37;4.77;;;11.50;98.80;;;;;;5110948;28;20517;-75
2021/03/29 07:49:43;;;;;;;6.90;4.20;;;11.50;99.10;;;;;;5110947;28;20572;-75
2021/03/29 07:52:27;;;;;;;7.27;4.43;;;11.50;98.20;;;;;;5111171;28;20449;-75
2021/03/29 07:54:54;;;;;;;6.43;4.10;;;11.60;98.80;;;;;;5111177;28;20532;-76
2021/03/29 07:57:53;;;;;;;5.90;4.63;;;11.60;98.50;;;;;;5111020;28;20842;-75
2021/03/29 08:00:40;;;;;;;7.37;4.30;;;11.70;98.20;;;;;;5110956;28;20862;-76
2021/03/29 08:03:53;;;;;;;5.93;4.77;;;11.90;98.90;;;;;;5111037;28;20437;-76
2021/03/29 08:06:51;;;;;;;9.50;4.50;;;12.10;97.90;;;;;;5109359;28;20895;-76
2021/03/29 08:09:22;;;;;;;9.83;5.07;;;12.30;98.20;;;;;;5014109;28;20478;-75
2021/03/29 08:12:07;;;;;;;6.17;4.27;;;12.50;97.10;;;;;;5076584;28;20446;-76
2021/03/29 08:14:39;;;;;;;7.40;4.03;;;12.80;97.30;;;;;;5107696;28;20789;-76
2021/03/29 08:17:50;;;;;;;7.03;4.47;;;13.00;96.60;;;;;;5099033;28;20453;-75
2021/03/29 08:20:35;;;;;;;6.43;4.13;;;13.20;95.80;;;;;;5093088;28;20436;-75
2021/03/29 08:23:32;;;;;;;7.93;4.30;;;13.30;95.60;;;;;;5090596;28;20457;-76
2021/03/29 08:26:13;;;;;;;7.03;4.13;;;13.40;94.60;;;;;;5090246;28;20524;-76
2021/03/29 08:29:11;;;;;;;7.90;4.20;;;13.40;94.60;;;;;;5089842;28;20485;-76
2021/03/29 08:32:14;;;;;;;7.97;4.13;;;13.30;94.30;;;;;;5088980;28;20436;-76
2021/03/29 08:35:00;;;;;;;8.73;4.13;;;13.30;94.50;;;;;;5090111;28;20212;-76
2021/03/29 08:37:29;;;;;;;8.63;3.90;;;13.40;93.90;;;;;;5090406;28;20469;-76
2021/03/29 08:39:58;;;;;;;7.60;4.40;;;13.50;94.10;;;;;;5089609;28;20446;-76
2021/03/29 08:42:29;;;;;;;5.70;3.80;;;13.70;93.50;;;;;;5090083;28;20469;-76
2021/03/29 08:44:56;;;;;;;4.93;3.53;;;14.00;93.60;;;;;;5094929;28;20535;-76
2021/03/29 08:47:24;;;;;;;5.00;3.83;;;14.40;92.90;;;;;;5098090;28;20529;-76
2021/03/29 08:49:53;;;;;;;7.50;4.20;;;14.90;93.20;;;;;;5107135;28;20437;-76
2021/03/29 08:52:20;;;;;;;5.90;4.30;;;15.10;91.30;;;;;;5110528;28;20478;-76
2021/03/29 08:54:56;;;;;;;7.13;4.13;;;15.50;91.40;;;;;;5115352;28;20476;-77
2021/03/29 08:57:26;;;;;;;8.17;3.93;;;15.80;90.90;;;;;;5114702;28;20535;-77
2021/03/29 08:59:56;;;;;;;10.13;4.00;;;15.80;90.90;;;;;;5114256;28;20441;-76
2021/03/29 09:02:23;;;;;;;5.40;3.83;;;15.90;88.70;;;;;;5109499;28;20450;-76
2021/03/29 09:04:52;;;;;;;8.00;4.27;;;15.80;89.10;;;;;;5112227;28;20481;-75
2021/03/29 09:07:19;;;;;;;6.13;4.30;;;15.70;89.30;;;;;;5114702;28;20469;-77
2021/03/29 09:09:46;;;;;;;9.57;4.20;;;15.70;90.70;;;;;;5114233;28;20572;-76
2021/03/29 09:12:31;;;;;;;7.87;4.27;;;15.70;90.20;;;;;;5115702;28;20473;-75
2021/03/29 09:14:59;;;;;;;4.60;3.73;;;15.70;88.10;;;;;;5114413;28;20504;-75
2021/03/29 09:17:28;;;;;;;9.13;4.13;;;15.60;88.00;;;;;;5114473;28;20549;-75
2021/03/29 09:19:55;;;;;;;9.93;4.40;;;15.60;87.80;;;;;;5113997;28;20437;-76
2021/03/29 09:22:35;;;;;;;6.50;4.77;;;15.60;88.30;;;;;;5114475;28;20444;-77
2021/03/29 09:25:03;;;;;;;8.97;4.50;;;15.80;89.80;;;;;;5114223;28;20489;-76
2021/03/29 09:27:35;;;;;;;6.70;3.90;;;16.10;87.50;;;;;;5114450;28;21107;-75
2021/03/29 09:30:05;;;;;;;5.63;4.17;;;16.50;86.30;;;;;;5113941;28;20536;-77
2021/03/29 09:32:33;;;;;;;8.90;4.47;;;16.90;85.80;;;;;;5114637;28;20544;-76
2021/03/29 09:35:00;;;;;;;6.83;4.30;;;17.40;81.30;;;;;;5114288;28;20520;-76
2021/03/29 09:37:28;;;;;;;7.40;3.20;;;17.80;81.60;;;;;;5113830;28;20547;-76
2021/03/29 09:40:00;;;;;;;11.70;3.67;;;18.30;79.70;;;;;;5113543;28;21152;-76
2021/03/29 09:42:41;;;;;;;5.87;2.90;;;18.40;75.40;;;;;;5113949;28;20453;-76
2021/03/29 09:45:12;;;;;;;4.33;2.90;;;18.70;76.40;;;;;;5113648;28;20890;-76
2021/03/29 09:47:39;;;;;;;6.13;2.40;;;19.00;76.40;;;;;;5113481;28;21126;-75
2021/03/29 09:50:08;;;;;;;8.00;3.50;;;19.50;73.40;;;;;;5112952;28;20444;-77
2021/03/29 09:52:37;;;;;;;5.77;3.20;;;19.70;72.40;;;;;;5113491;28;20457;-76
2021/03/29 09:55:04;;;;;;;7.13;3.37;;;19.70;70.50;;;;;;5113364;28;20432;-75
2021/03/29 09:57:39;;;;;;;4.80;2.87;;;19.90;68.00;;;;;;5113225;28;20536;-76
2021/03/29 10:00:17;;;;;;;6.13;3.10;;;20.30;68.00;;;;;;5113160;28;20449;-75
2021/03/29 10:02:43;;;;;;;5.47;3.00;;;20.40;66.30;;;;;;5113094;28;20527;-76
2021/03/29 10:05:12;;;;;;;5.27;3.00;;;20.10;66.60;;;;;;5112315;28;20590;-76
2021/03/29 10:07:52;;;;;;;10.23;3.13;;;20.10;66.70;;;;;;5113185;28;20815;-77
2021/03/29 10:10:30;;;;;;;9.13;3.13;;;20.40;68.50;;;;;;5112759;28;20453;-77
2021/03/29 10:13:08;;;;;;;5.20;3.00;;;20.50;66.40;;;;;;5112982;28;20447;-76
2021/03/29 10:15:36;;;;;;;5.87;2.53;;;20.30;65.80;;;;;;5113115;28;20472;-76
2021/03/29 10:18:07;;;;;;;5.10;3.27;;;20.40;66.50;;;;;;5112916;28;20462;-77
2021/03/29 10:20:36;;;;;;;5.60;3.17;;;20.40;64.60;;;;;;5112579;28;20445;-77
2021/03/29 10:23:22;;;;;;;7.40;3.00;;;20.50;62.50;;;;;;5112712;28;20444;-76
2021/03/29 10:26:13;;;;;;;7.93;3.13;;;20.70;64.10;;;;;;5112867;28;20483;-76
2021/03/29 10:28:52;;;;;;;5.23;2.83;;;21.10;63.30;;;;;;5112579;28;20477;-75
2021/03/29 10:31:18;;;;;;;6.50;2.60;;;21.50;61.00;;;;;;5112525;28;20519;-76
2021/03/29 10:33:45;;;;;;;6.80;3.20;;;21.90;60.70;;;;;;5112469;28;20536;-76
2021/03/29 10:36:15;;;;;;;7.87;3.50;;;22.10;58.40;;;;;;5112728;28;20484;-77
2021/03/29 10:38:42;;;;;;;7.27;3.47;;;22.40;58.00;;;;;;5112629;28;20540;-76
2021/03/29 10:41:09;;;;;;;4.90;3.10;;;21.90;56.90;;;;;;5112120;28;20931;-76
2021/03/29 10:43:35;;;;;;;6.20;2.47;;;21.60;59.10;;;;;;5112316;28;20487;-76
2021/03/29 10:46:03;;;;;;;5.80;2.97;;;21.50;58.40;;;;;;5112570;28;20939;-77
2021/03/29 10:48:30;;;;;;;9.03;2.73;;;21.80;58.50;;;;;;5112626;28;20477;-77
2021/03/29 10:50:57;;;;;;;6.30;3.10;;;21.90;55.70;;;;;;5112382;28;20472;-77
2021/03/29 10:53:23;;;;;;;5.60;2.83;;;22.10;56.80;;;;;;5112435;28;20534;-77
2021/03/29 10:55:50;;;;;;;5.90;2.87;;;22.50;58.00;;;;;;5112297;28;20449;-77
2021/03/29 10:58:16;;;;;;;5.23;2.63;;;23.10;56.40;;;;;;5112047;28;20457;-75
2021/03/29 11:00:43;;;;;;;4.90;2.90;;;23.30;54.80;;;;;;5111980;28;20472;-75
2021/03/29 11:03:10;;;;;;;4.87;3.00;;;23.90;54.30;;;;;;5111928;28;20477;-76
2021/03/29 11:05:36;;;;;;;5.40;2.90;;;24.40;54.30;;;;;;5111873;28;20469;-75
2021/03/29 11:08:03;;;;;;;9.53;3.40;;;24.80;53.20;;;;;;5111834;28;20535;-76
2021/03/29 11:10:29;;;;;;;4.80;3.00;;;25.30;54.60;;;;;;5111774;28;20481;-76
2021/03/29 11:12:55;;;;;;;8.03;3.13;;;25.70;50.60;;;;;;5111622;28;20489;-74
2021/03/29 11:15:22;;;;;;;5.40;2.80;;;25.40;49.70;;;;;;5111410;28;20875;-74
2021/03/29 11:17:48;;;;;;;5.37;3.23;;;24.70;47.70;;;;;;5111746;28;20461;-75
2021/03/29 11:20:16;;;;;;;8.10;3.20;;;24.60;51.10;;;;;;5111069;28;20476;-74
2021/03/29 11:22:43;;;;;;;9.43;3.00;;;24.90;50.70;;;;;;5111827;28;20519;-74
2021/03/29 11:25:11;;;;;;;5.67;2.43;;;25.30;50.60;;;;;;5112539;28;20472;-76
2021/03/29 11:27:37;;;;;;;8.13;2.90;;;25.80;50.60;;;;;;5111464;28;20489;-75
2021/03/29 11:30:09;;;;;;;4.60;3.20;;;26.50;48.40;;;;;;5110954;28;20520;-75
2021/03/29 11:32:35;;;;;;;5.30;2.70;;;26.00;46.20;;;;;;5112323;28;20453;-76
2021/03/29 11:35:01;;;;;;;7.00;2.67;;;26.30;47.30;;;;;;5111454;28;20534;-75
2021/03/29 11:37:29;;;;;;;4.03;2.50;;;26.70;47.10;;;;;;5111218;28;20986;-74
2021/03/29 11:39:55;;;;;;;3.80;2.23;;;26.90;46.80;;;;;;5109912;28;21020;-76
2021/03/29 11:42:21;;;;;;;5.97;2.60;;;27.00;45.90;;;;;;5110169;28;20473;-73
2021/03/29 11:44:48;;;;;;;3.70;2.33;;;27.10;46.20;;;;;;5110376;28;20578;-77
2021/03/29 11:47:14;;;;;;;5.50;2.30;;;27.60;44.60;;;;;;5110173;28;20472;-74
2021/03/29 11:49:40;;;;;;;6.30;2.67;;;28.30;43.40;;;;;;5110563;28;20442;-76
2021/03/29 11:52:07;;;;;;;8.73;2.20;;;28.80;43.80;;;;;;5112587;28;20527;-74
2021/03/29 11:54:34;;;;;;;5.40;3.00;;;28.40;41.60;;;;;;5104342;28;20469;-77
2021/03/29 11:57:01;;;;;;;5.70;2.27;;;28.20;42.00;;;;;;5097994;28;20541;-77
2021/03/29 11:59:28;;;;;;;6.10;3.10;;;28.30;42.00;;;;;;5092667;28;20529;-78
2021/03/29 12:01:59;;;;;;;4.00;2.00;;;28.50;40.40;;;;;;5095871;28;20435;-78
2021/03/29 12:04:33;;;;;;;7.30;2.53;;;29.40;41.50;;;;;;5093887;28;20485;-78
2021/03/29 12:07:11;;;;;;;5.90;2.73;;;29.80;40.90;;;;;;5096828;28;20905;-81
2021/03/29 12:09:45;;;;;;;4.10;2.10;;;29.80;40.60;;;;;;5094065;28;20916;-78
2021/03/29 12:12:12;;;;;;;4.83;2.77;;;28.90;38.60;;;;;;5095094;28;20458;-77
2021/03/29 12:14:39;;;;;;;6.67;2.90;;;29.30;39.20;;;;;;5095846;28;20789;-79
2021/03/29 12:17:08;;;;;;;4.60;2.10;;;29.80;38.70;;;;;;5091592;28;21020;-76
2021/03/29 12:19:36;;;;;;;5.33;2.60;;;30.30;38.20;;;;;;5103166;28;20481;-74
2021/03/29 12:22:09;;;;;;;4.97;2.60;;;30.40;37.20;;;;;;5100010;28;20452;-76
2021/03/29 12:24:36;;;;;;;5.43;2.30;;;30.80;35.70;;;;;;5090526;28;20441;-75
2021/03/29 12:27:05;;;;;;;6.37;2.60;;;31.00;35.50;;;;;;5087939;28;20576;-75
2021/03/29 12:29:39;;;;;;;5.00;2.23;;;30.90;35.00;;;;;;5090884;28;20481;-74
2021/03/29 12:32:08;;;;;;;5.47;2.67;;;31.10;35.10;;;;;;5108468;28;20481;-76
2021/03/29 12:34:42;;;;;;;4.47;2.30;;;31.40;34.90;;;;;;5107742;28;20442;-76
2021/03/29 12:37:11;;;;;;;8.13;4.47;;;31.50;32.80;;;;;;5107240;28;20552;-75
2021/03/29 12:39:42;;;;;;;7.40;2.70;;;30.20;35.50;;;;;;5107681;28;20477;-74
2021/03/29 12:42:12;;;;;;;4.07;2.23;;;30.10;35.50;;;;;;5108514;28;20936;-75
2021/03/29 12:44:38;;;;;;;4.90;2.77;;;29.00;35.60;;;;;;5108421;28;20539;-75
2021/03/29 12:47:07;;;;;;;4.77;2.83;;;28.80;38.20;;;;;;5108503;28;21064;-75
2021/03/29 12:49:34;;;;;;;3.90;2.43;;;29.30;35.20;;;;;;5107354;28;20950;-74
2021/03/29 12:52:02;;;;;;;4.87;2.57;;;30.00;36.30;;;;;;5108148;28;20536;-75
2021/03/29 12:54:30;;;;;;;3.90;2.03;;;30.20;34.60;;;;;;5108285;28;20445;-75
2021/03/29 12:56:58;;;;;;;7.30;3.07;;;29.20;34.00;;;;;;5108075;28;20473;-75
2021/03/29 12:59:27;;;;;;;5.23;2.77;;;28.90;35.60;;;;;;5107064;28;20556;-74
2021/03/29 13:01:55;;;;;;;4.57;2.23;;;30.00;34.70;;;;;;5107968;28;20448;-75
2021/03/29 13:04:24;;;;;;;5.00;2.50;;;31.00;33.70;;;;;;5108421;28;20802;-75